»·PEaware :: N101JP KSNA-KMYF

N101JP :: KSNA-KMYF

FLIGHT INFORMATION

Flight Status: Arrived
Operator: Privately registered:
United States
More flights under this callsign
Pilot: James T. (870)
Aircraft: PILATUS PC-12 EAGLE
(PC12)
More flights by this aircraft type
Origin: KSNA John Wayne-Orange Co
United States
Destination: KMYF Montgomery
United States
More flights between these airports :: More routes between these airports
Route: +V25 PACIF V208 LAX118 CARDI MZB320 MZB
File this flight plan on PilotEdge
Remarks:
Altitude:
(Current/Filed)
90ft
Speed:
(Current/Filed)
200kts
Departed: 07-Nov-15 01:41 PM
Arrived: 07-Nov-15 02:19 PM
Distance/Time
Traveled:
63nm/0:38
Distance/Time
To Go:
Arrived

Flight Plot

Page will automatically refresh every two minutes.


Map Options




Map Legend


Flown Route
Filed Route
Departure Airport
Arrival Airport
Navaid (VOR, NDB)
Fix

Horizontal Profiles

Position Reports

Time Latitude Longitude Heading Altitude Ground
Speed
07-Nov-15 13:23 33.682401 -117.860335 118 61ft 0kts
07-Nov-15 13:24 33.682401 -117.860335 118 61ft 0kts
07-Nov-15 13:25 33.682401 -117.860335 118 61ft 0kts
07-Nov-15 13:26 33.682401 -117.860335 118 61ft 0kts
07-Nov-15 13:27 33.682401 -117.860335 118 61ft 0kts
07-Nov-15 13:28 33.682401 -117.860335 118 61ft 0kts
07-Nov-15 13:29 33.682401 -117.860335 118 61ft 0kts
07-Nov-15 13:30 33.682401 -117.860335 118 61ft 0kts
07-Nov-15 13:31 33.682401 -117.860335 118 61ft 0kts
07-Nov-15 13:32 33.682401 -117.860335 118 61ft 0kts
07-Nov-15 13:33 33.682401 -117.860335 118 61ft 0kts
07-Nov-15 13:34 33.682428 -117.860613 253 62ft 0kts
07-Nov-15 13:35 33.681432 -117.861848 208 61ft 11kts
07-Nov-15 13:36 33.680673 -117.863068 299 61ft 0kts
07-Nov-15 13:37 33.680673 -117.863068 299 61ft 0kts
07-Nov-15 13:38 33.680674 -117.863071 298 61ft 1kts
07-Nov-15 13:39 33.667441 -117.872247 208 409ft 128kts
07-Nov-15 13:40 33.625354 -117.878899 186 2014ft 160kts
07-Nov-15 13:41 33.580825 -117.883605 186 3762ft 162kts
07-Nov-15 13:42 33.534420 -117.888546 186 5007ft 192kts
07-Nov-15 13:43 33.476678 -117.894961 185 5804ft 192kts
07-Nov-15 13:44 33.441044 -117.862911 128 7666ft 168kts
07-Nov-15 13:45 33.412459 -117.819422 131 8981ft 176kts
07-Nov-15 13:46 33.376219 -117.766683 131 9002ft 223kts
07-Nov-15 13:47 33.336811 -117.709686 131 8995ft 224kts
07-Nov-15 13:48 33.297305 -117.652733 131 8993ft 223kts
07-Nov-15 13:49 33.257615 -117.595615 131 8990ft 222kts
07-Nov-15 13:50 33.217992 -117.538697 130 8829ft 229kts
07-Nov-15 13:51 33.174940 -117.476955 129 7348ft 247kts
07-Nov-15 13:52 33.132699 -117.419560 154 7009ft 215kts
07-Nov-15 13:53 33.080920 -117.390964 155 7042ft 199kts
07-Nov-15 13:54 33.031604 -117.363557 155 7044ft 194kts
07-Nov-15 13:55 32.997141 -117.321311 101 7049ft 191kts
07-Nov-15 13:56 32.986997 -117.262096 101 7044ft 177kts
07-Nov-15 13:57 32.977482 -117.206524 101 7048ft 166kts
07-Nov-15 13:58 32.968794 -117.154853 101 7020ft 171kts
07-Nov-15 13:59 32.959292 -117.099019 101 7020ft 173kts
07-Nov-15 14:00 32.949663 -117.042667 100 7000ft 175kts
07-Nov-15 14:01 32.939989 -116.985859 100 6999ft 175kts
07-Nov-15 14:02 32.930313 -116.928825 100 7001ft 175kts
07-Nov-15 14:03 32.920744 -116.872133 101 7002ft 175kts
07-Nov-15 14:04 32.911037 -116.815227 108 6995ft 176kts
07-Nov-15 14:05 32.868258 -116.808287 191 6937ft 174kts
07-Nov-15 14:06 32.813061 -116.819991 191 5478ft 215kts
07-Nov-15 14:07 32.758156 -116.831435 191 4971ft 176kts
07-Nov-15 14:08 32.720241 -116.844868 238 4962ft 128kts
07-Nov-15 14:09 32.716919 -116.887875 284 4170ft 150kts
07-Nov-15 14:10 32.731972 -116.927433 298 3976ft 119kts
07-Nov-15 14:11 32.748221 -116.968532 294 2854ft 153kts
07-Nov-15 14:12 32.764903 -117.009737 296 2479ft 121kts
07-Nov-15 14:13 32.779103 -117.045531 295 2040ft 116kts
07-Nov-15 14:14 32.792497 -117.079492 296 1444ft 111kts
07-Nov-15 14:15 32.804005 -117.108758 295 918ft 92kts
07-Nov-15 14:16 32.815343 -117.137521 295 438ft 89kts
07-Nov-15 14:17 32.817461 -117.144916 207 432ft 6kts
07-Nov-15 14:18 32.816959 -117.145185 205 433ft 11kts
07-Nov-15 14:19 32.816026 -117.144989 114 433ft 0kts
07-Nov-15 14:20 32.814925 -117.142198 116 433ft 10kts
07-Nov-15 14:21 32.813511 -117.141272 27 433ft 4kts
07-Nov-15 14:22 32.813703 -117.141148 24 433ft 0kts

Navigation Log

Ident Type
Flight plan parsing failed, navigation log unavailable